Terminal Aerodrome Forecast
Issued by NWS

Home | Current Version | Previous Version | Text Only | Print | Product List | Glossary On
Versions: 1 2 3 4 5 6 7 8 9 10 11 12 13
000
FTUS44 KLZK 181700
TAFBPK
TAF
KBPK 181739Z 1818/1918 09006KT P6SM SCT050 SCT250
     FM190000 08003KT P6SM SKC
     FM191400 12005KT P6SM SCT250=

USA.gov is the U.S. government's official web portal to all federal, state and local government web resources and services.